sensor_id;sensor_type;location;lat;lon;timestamp;P1;durP1;ratioP1;P2;durP2;ratioP2
57023;SDS011;42916;54.346;18.562;2024-03-29T00:01:56;6.10;;;4.10;;
57023;SDS011;42916;54.346;18.562;2024-03-29T00:09:01;5.80;;;4.00;;
57023;SDS011;42916;54.346;18.562;2024-03-29T00:19:40;6.80;;;3.90;;
57023;SDS011;42916;54.346;18.562;2024-03-29T00:22:12;5.90;;;3.80;;
57023;SDS011;42916;54.346;18.562;2024-03-29T00:28:07;7.40;;;3.60;;
57023;SDS011;42916;54.346;18.562;2024-03-29T00:37:45;6.10;;;3.60;;
57023;SDS011;42916;54.346;18.562;2024-03-29T00:40:36;5.30;;;3.80;;
57023;SDS011;42916;54.346;18.562;2024-03-29T00:43:02;5.20;;;3.80;;
57023;SDS011;42916;54.346;18.562;2024-03-29T00:59:12;3.80;;;2.40;;
57023;SDS011;42916;54.346;18.562;2024-03-29T01:25:53;3.10;;;2.20;;
57023;SDS011;42916;54.346;18.562;2024-03-29T01:28:21;4.40;;;2.00;;
57023;SDS011;42916;54.346;18.562;2024-03-29T01:31:01;2.60;;;2.30;;
57023;SDS011;42916;54.346;18.562;2024-03-29T01:33:38;4.10;;;2.00;;
57023;SDS011;42916;54.346;18.562;2024-03-29T01:40:48;4.20;;;2.10;;
57023;SDS011;42916;54.346;18.562;2024-03-29T01:43:20;3.70;;;1.80;;
57023;SDS011;42916;54.346;18.562;2024-03-29T01:55:37;3.00;;;1.60;;
57023;SDS011;42916;54.346;18.562;2024-03-29T02:04:39;3.10;;;1.50;;
57023;SDS011;42916;54.346;18.562;2024-03-29T02:07:09;2.50;;;1.30;;
57023;SDS011;42916;54.346;18.562;2024-03-29T02:09:37;3.90;;;1.40;;
57023;SDS011;42916;54.346;18.562;2024-03-29T02:12:03;2.60;;;1.40;;
57023;SDS011;42916;54.346;18.562;2024-03-29T02:14:29;2.80;;;1.60;;
57023;SDS011;42916;54.346;18.562;2024-03-29T02:16:55;3.90;;;1.90;;
57023;SDS011;42916;54.346;18.562;2024-03-29T02:19:20;3.00;;;1.80;;
57023;SDS011;42916;54.346;18.562;2024-03-29T02:21:55;2.70;;;1.40;;
57023;SDS011;42916;54.346;18.562;2024-03-29T02:24:27;2.90;;;1.40;;
57023;SDS011;42916;54.346;18.562;2024-03-29T02:27:08;2.50;;;1.20;;
57023;SDS011;42916;54.346;18.562;2024-03-29T02:29:35;2.70;;;1.30;;
57023;SDS011;42916;54.346;18.562;2024-03-29T02:32:03;1.70;;;1.30;;
57023;SDS011;42916;54.346;18.562;2024-03-29T02:34:32;2.00;;;1.10;;
57023;SDS011;42916;54.346;18.562;2024-03-29T02:36:59;3.00;;;1.30;;
57023;SDS011;42916;54.346;18.562;2024-03-29T02:54:18;3.20;;;1.40;;
57023;SDS011;42916;54.346;18.562;2024-03-29T03:15:32;1.50;;;1.20;;
57023;SDS011;42916;54.346;18.562;2024-03-29T03:25:45;1.60;;;1.00;;
57023;SDS011;42916;54.346;18.562;2024-03-29T03:42:56;1.50;;;1.10;;
57023;SDS011;42916;54.346;18.562;2024-03-29T04:04:36;3.30;;;1.10;;
57023;SDS011;42916;54.346;18.562;2024-03-29T04:14:00;3.20;;;1.20;;
57023;SDS011;42916;54.346;18.562;2024-03-29T04:16:52;1.30;;;0.80;;
57023;SDS011;42916;54.346;18.562;2024-03-29T04:23:26;1.10;;;1.00;;
57023;SDS011;42916;54.346;18.562;2024-03-29T04:26:39;1.40;;;1.20;;
57023;SDS011;42916;54.346;18.562;2024-03-29T04:29:27;4.50;;;1.30;;
57023;SDS011;42916;54.346;18.562;2024-03-29T04:35:49;2.10;;;1.00;;
57023;SDS011;42916;54.346;18.562;2024-03-29T04:42:28;1.70;;;1.20;;
57023;SDS011;42916;54.346;18.562;2024-03-29T04:51:33;1.60;;;1.20;;
57023;SDS011;42916;54.346;18.562;2024-03-29T04:57:28;1.10;;;0.90;;
57023;SDS011;42916;54.346;18.562;2024-03-29T05:11:04;1.70;;;1.10;;
57023;SDS011;42916;54.346;18.562;2024-03-29T05:13:30;1.30;;;1.10;;
57023;SDS011;42916;54.346;18.562;2024-03-29T05:15:57;1.10;;;1.00;;
57023;SDS011;42916;54.346;18.562;2024-03-29T05:18:26;1.90;;;1.00;;
57023;SDS011;42916;54.346;18.562;2024-03-29T05:20:53;1.10;;;0.90;;
57023;SDS011;42916;54.346;18.562;2024-03-29T05:23:19;1.20;;;1.00;;
57023;SDS011;42916;54.346;18.562;2024-03-29T05:25:46;2.00;;;1.00;;
57023;SDS011;42916;54.346;18.562;2024-03-29T05:28:15;1.50;;;1.20;;
57023;SDS011;42916;54.346;18.562;2024-03-29T05:30:42;1.30;;;1.00;;
57023;SDS011;42916;54.346;18.562;2024-03-29T05:33:09;2.00;;;1.30;;
57023;SDS011;42916;54.346;18.562;2024-03-29T05:35:35;1.60;;;1.00;;
57023;SDS011;42916;54.346;18.562;2024-03-29T05:38:02;2.50;;;1.10;;
57023;SDS011;42916;54.346;18.562;2024-03-29T05:40:29;2.40;;;1.20;;
57023;SDS011;42916;54.346;18.562;2024-03-29T05:42:55;2.00;;;1.30;;
57023;SDS011;42916;54.346;18.562;2024-03-29T05:45:25;1.70;;;1.30;;
57023;SDS011;42916;54.346;18.562;2024-03-29T05:47:56;4.00;;;1.20;;
57023;SDS011;42916;54.346;18.562;2024-03-29T05:52:51;1.30;;;1.20;;
57023;SDS011;42916;54.346;18.562;2024-03-29T05:55:18;2.50;;;1.10;;
57023;SDS011;42916;54.346;18.562;2024-03-29T05:57:45;3.10;;;1.00;;
57023;SDS011;42916;54.346;18.562;2024-03-29T06:00:12;2.90;;;1.30;;
57023;SDS011;42916;54.346;18.562;2024-03-29T06:02:43;3.90;;;1.20;;
57023;SDS011;42916;54.346;18.562;2024-03-29T06:05:14;1.80;;;1.10;;
57023;SDS011;42916;54.346;18.562;2024-03-29T06:07:40;4.20;;;2.10;;
57023;SDS011;42916;54.346;18.562;2024-03-29T06:10:07;1.80;;;1.20;;
57023;SDS011;42916;54.346;18.562;2024-03-29T06:12:35;3.80;;;1.40;;
57023;SDS011;42916;54.346;18.562;2024-03-29T06:15:05;2.90;;;1.20;;
57023;SDS011;42916;54.346;18.562;2024-03-29T06:17:51;1.40;;;0.90;;
57023;SDS011;42916;54.346;18.562;2024-03-29T06:20:17;2.20;;;1.10;;
57023;SDS011;42916;54.346;18.562;2024-03-29T06:22:44;3.50;;;1.30;;
57023;SDS011;42916;54.346;18.562;2024-03-29T06:25:10;2.00;;;1.20;;
57023;SDS011;42916;54.346;18.562;2024-03-29T06:27:37;2.10;;;1.20;;
57023;SDS011;42916;54.346;18.562;2024-03-29T06:30:04;1.90;;;0.90;;
57023;SDS011;42916;54.346;18.562;2024-03-29T06:32:31;2.50;;;1.00;;
57023;SDS011;42916;54.346;18.562;2024-03-29T06:34:58;1.90;;;1.00;;
57023;SDS011;42916;54.346;18.562;2024-03-29T06:37:25;2.80;;;1.00;;
57023;SDS011;42916;54.346;18.562;2024-03-29T06:39:53;1.70;;;1.20;;
57023;SDS011;42916;54.346;18.562;2024-03-29T06:42:23;2.20;;;1.10;;
57023;SDS011;42916;54.346;18.562;2024-03-29T06:44:50;1.30;;;1.20;;
57023;SDS011;42916;54.346;18.562;2024-03-29T06:47:18;2.60;;;1.40;;
57023;SDS011;42916;54.346;18.562;2024-03-29T06:49:45;1.90;;;1.30;;
57023;SDS011;42916;54.346;18.562;2024-03-29T06:52:12;2.10;;;1.50;;
57023;SDS011;42916;54.346;18.562;2024-03-29T06:54:39;2.10;;;1.70;;
57023;SDS011;42916;54.346;18.562;2024-03-29T06:57:09;4.40;;;1.70;;
57023;SDS011;42916;54.346;18.562;2024-03-29T06:59:41;2.70;;;1.50;;
57023;SDS011;42916;54.346;18.562;2024-03-29T07:02:08;2.80;;;1.40;;
57023;SDS011;42916;54.346;18.562;2024-03-29T07:04:36;4.00;;;1.30;;
57023;SDS011;42916;54.346;18.562;2024-03-29T07:07:03;2.60;;;1.40;;
57023;SDS011;42916;54.346;18.562;2024-03-29T07:09:30;5.10;;;1.80;;
57023;SDS011;42916;54.346;18.562;2024-03-29T07:11:57;4.50;;;1.70;;
57023;SDS011;42916;54.346;18.562;2024-03-29T07:14:25;2.60;;;1.40;;
57023;SDS011;42916;54.346;18.562;2024-03-29T07:17:14;2.20;;;1.20;;
57023;SDS011;42916;54.346;18.562;2024-03-29T07:19:41;2.60;;;1.50;;
57023;SDS011;42916;54.346;18.562;2024-03-29T07:22:08;2.70;;;1.30;;
57023;SDS011;42916;54.346;18.562;2024-03-29T07:24:34;2.80;;;1.60;;
57023;SDS011;42916;54.346;18.562;2024-03-29T07:27:01;3.70;;;1.50;;
57023;SDS011;42916;54.346;18.562;2024-03-29T07:29:28;3.60;;;1.00;;
57023;SDS011;42916;54.346;18.562;2024-03-29T07:31:55;2.00;;;1.10;;
57023;SDS011;42916;54.346;18.562;2024-03-29T07:34:22;2.00;;;1.20;;
57023;SDS011;42916;54.346;18.562;2024-03-29T07:36:48;1.60;;;1.30;;
57023;SDS011;42916;54.346;18.562;2024-03-29T07:39:15;3.50;;;1.20;;
57023;SDS011;42916;54.346;18.562;2024-03-29T07:41:41;1.80;;;1.40;;
57023;SDS011;42916;54.346;18.562;2024-03-29T07:44:08;2.60;;;1.30;;
57023;SDS011;42916;54.346;18.562;2024-03-29T07:46:36;3.10;;;1.40;;
57023;SDS011;42916;54.346;18.562;2024-03-29T07:49:04;3.60;;;1.50;;
57023;SDS011;42916;54.346;18.562;2024-03-29T07:51:42;2.10;;;1.10;;
57023;SDS011;42916;54.346;18.562;2024-03-29T07:54:09;4.00;;;1.60;;
57023;SDS011;42916;54.346;18.562;2024-03-29T07:56:36;2.60;;;1.20;;
57023;SDS011;42916;54.346;18.562;2024-03-29T07:59:10;3.90;;;1.40;;
57023;SDS011;42916;54.346;18.562;2024-03-29T08:01:49;2.20;;;1.60;;
57023;SDS011;42916;54.346;18.562;2024-03-29T08:06:45;8.10;;;1.70;;
57023;SDS011;42916;54.346;18.562;2024-03-29T08:09:22;4.30;;;1.30;;
57023;SDS011;42916;54.346;18.562;2024-03-29T08:11:49;3.90;;;1.40;;
57023;SDS011;42916;54.346;18.562;2024-03-29T08:14:15;4.50;;;1.50;;
57023;SDS011;42916;54.346;18.562;2024-03-29T08:16:42;2.90;;;1.20;;
57023;SDS011;42916;54.346;18.562;2024-03-29T08:19:09;2.00;;;1.00;;
57023;SDS011;42916;54.346;18.562;2024-03-29T08:21:43;2.50;;;1.10;;
57023;SDS011;42916;54.346;18.562;2024-03-29T08:24:10;2.90;;;1.40;;
57023;SDS011;42916;54.346;18.562;2024-03-29T08:26:37;4.20;;;1.00;;
57023;SDS011;42916;54.346;18.562;2024-03-29T08:29:04;2.80;;;1.00;;
57023;SDS011;42916;54.346;18.562;2024-03-29T08:31:31;2.10;;;0.90;;
57023;SDS011;42916;54.346;18.562;2024-03-29T08:33:59;3.40;;;1.60;;
57023;SDS011;42916;54.346;18.562;2024-03-29T08:36:28;2.60;;;1.00;;
57023;SDS011;42916;54.346;18.562;2024-03-29T08:38:54;2.70;;;1.40;;
57023;SDS011;42916;54.346;18.562;2024-03-29T08:41:21;2.70;;;1.20;;
57023;SDS011;42916;54.346;18.562;2024-03-29T08:43:48;24.90;;;3.00;;
57023;SDS011;42916;54.346;18.562;2024-03-29T08:46:15;2.00;;;1.00;;
57023;SDS011;42916;54.346;18.562;2024-03-29T08:48:41;3.80;;;1.10;;
57023;SDS011;42916;54.346;18.562;2024-03-29T08:51:09;2.00;;;1.00;;
57023;SDS011;42916;54.346;18.562;2024-03-29T08:53:36;5.00;;;1.20;;
57023;SDS011;42916;54.346;18.562;2024-03-29T08:56:03;2.50;;;1.20;;
57023;SDS011;42916;54.346;18.562;2024-03-29T08:58:29;3.50;;;1.10;;
57023;SDS011;42916;54.346;18.562;2024-03-29T09:00:56;2.90;;;1.20;;
57023;SDS011;42916;54.346;18.562;2024-03-29T09:03:23;3.30;;;1.10;;
57023;SDS011;42916;54.346;18.562;2024-03-29T09:05:51;2.00;;;1.00;;
57023;SDS011;42916;54.346;18.562;2024-03-29T09:08:18;1.50;;;1.00;;
57023;SDS011;42916;54.346;18.562;2024-03-29T09:10:44;5.50;;;1.20;;
57023;SDS011;42916;54.346;18.562;2024-03-29T09:13:11;3.20;;;1.00;;
57023;SDS011;42916;54.346;18.562;2024-03-29T09:15:38;4.00;;;1.10;;
57023;SDS011;42916;54.346;18.562;2024-03-29T09:18:06;2.20;;;1.00;;
57023;SDS011;42916;54.346;18.562;2024-03-29T09:20:57;3.00;;;0.80;;
57023;SDS011;42916;54.346;18.562;2024-03-29T09:23:25;2.50;;;0.90;;
57023;SDS011;42916;54.346;18.562;2024-03-29T09:25:59;2.10;;;0.80;;
57023;SDS011;42916;54.346;18.562;2024-03-29T09:28:26;3.20;;;0.80;;
57023;SDS011;42916;54.346;18.562;2024-03-29T09:30:57;1.90;;;0.80;;
57023;SDS011;42916;54.346;18.562;2024-03-29T09:33:25;3.70;;;1.00;;
57023;SDS011;42916;54.346;18.562;2024-03-29T09:36:13;2.20;;;0.90;;
57023;SDS011;42916;54.346;18.562;2024-03-29T09:38:40;2.30;;;0.90;;
57023;SDS011;42916;54.346;18.562;2024-03-29T09:41:10;2.60;;;1.00;;
57023;SDS011;42916;54.346;18.562;2024-03-29T09:43:43;8.30;;;1.30;;
57023;SDS011;42916;54.346;18.562;2024-03-29T09:46:12;3.10;;;1.00;;
57023;SDS011;42916;54.346;18.562;2024-03-29T09:48:42;2.70;;;0.80;;
57023;SDS011;42916;54.346;18.562;2024-03-29T09:51:16;2.40;;;0.90;;
57023;SDS011;42916;54.346;18.562;2024-03-29T09:53:45;3.70;;;0.90;;
57023;SDS011;42916;54.346;18.562;2024-03-29T09:56:12;1.90;;;0.80;;
57023;SDS011;42916;54.346;18.562;2024-03-29T09:58:39;2.20;;;1.00;;
57023;SDS011;42916;54.346;18.562;2024-03-29T10:01:06;3.30;;;1.50;;
57023;SDS011;42916;54.346;18.562;2024-03-29T10:03:41;1.30;;;0.90;;
57023;SDS011;42916;54.346;18.562;2024-03-29T10:06:11;4.80;;;1.00;;
57023;SDS011;42916;54.346;18.562;2024-03-29T10:08:41;6.70;;;1.60;;
57023;SDS011;42916;54.346;18.562;2024-03-29T10:11:07;6.70;;;1.10;;
57023;SDS011;42916;54.346;18.562;2024-03-29T10:13:34;3.10;;;1.00;;
57023;SDS011;42916;54.346;18.562;2024-03-29T10:16:01;9.40;;;1.60;;
57023;SDS011;42916;54.346;18.562;2024-03-29T10:18:29;1.70;;;0.80;;
57023;SDS011;42916;54.346;18.562;2024-03-29T10:21:03;3.00;;;1.10;;
57023;SDS011;42916;54.346;18.562;2024-03-29T10:23:31;2.40;;;0.80;;
57023;SDS011;42916;54.346;18.562;2024-03-29T10:26:01;2.40;;;0.90;;
57023;SDS011;42916;54.346;18.562;2024-03-29T10:28:35;3.60;;;0.90;;
57023;SDS011;42916;54.346;18.562;2024-03-29T10:31:03;5.00;;;1.00;;
57023;SDS011;42916;54.346;18.562;2024-03-29T10:33:31;2.90;;;0.90;;
57023;SDS011;42916;54.346;18.562;2024-03-29T10:35:59;3.70;;;0.80;;
57023;SDS011;42916;54.346;18.562;2024-03-29T10:38:27;2.40;;;0.80;;
57023;SDS011;42916;54.346;18.562;2024-03-29T10:40:54;2.80;;;0.90;;
57023;SDS011;42916;54.346;18.562;2024-03-29T10:43:21;2.40;;;0.80;;
57023;SDS011;42916;54.346;18.562;2024-03-29T10:45:50;2.20;;;0.80;;
57023;SDS011;42916;54.346;18.562;2024-03-29T10:48:20;4.90;;;0.80;;
57023;SDS011;42916;54.346;18.562;2024-03-29T10:50:48;19.60;;;3.00;;
57023;SDS011;42916;54.346;18.562;2024-03-29T10:53:17;4.70;;;0.90;;
57023;SDS011;42916;54.346;18.562;2024-03-29T10:55:44;1.00;;;0.80;;
57023;SDS011;42916;54.346;18.562;2024-03-29T10:58:11;4.30;;;0.80;;
57023;SDS011;42916;54.346;18.562;2024-03-29T11:00:39;4.70;;;1.10;;
57023;SDS011;42916;54.346;18.562;2024-03-29T11:03:18;1.70;;;0.50;;
57023;SDS011;42916;54.346;18.562;2024-03-29T11:05:49;2.40;;;0.80;;
57023;SDS011;42916;54.346;18.562;2024-03-29T11:08:23;3.20;;;0.90;;
57023;SDS011;42916;54.346;18.562;2024-03-29T11:10:53;5.40;;;1.00;;
57023;SDS011;42916;54.346;18.562;2024-03-29T11:15:56;4.00;;;0.80;;
57023;SDS011;42916;54.346;18.562;2024-03-29T11:18:23;2.40;;;0.80;;
57023;SDS011;42916;54.346;18.562;2024-03-29T11:20:50;3.10;;;0.90;;
57023;SDS011;42916;54.346;18.562;2024-03-29T11:23:18;1.70;;;0.80;;
57023;SDS011;42916;54.346;18.562;2024-03-29T11:25:55;2.20;;;0.80;;
57023;SDS011;42916;54.346;18.562;2024-03-29T11:28:32;1.20;;;0.60;;
57023;SDS011;42916;54.346;18.562;2024-03-29T11:33:34;1.30;;;0.70;;
57023;SDS011;42916;54.346;18.562;2024-03-29T11:36:15;2.90;;;0.80;;
57023;SDS011;42916;54.346;18.562;2024-03-29T11:38:48;2.80;;;1.20;;
57023;SDS011;42916;54.346;18.562;2024-03-29T11:41:16;7.00;;;1.30;;
57023;SDS011;42916;54.346;18.562;2024-03-29T11:43:44;3.80;;;1.00;;
57023;SDS011;42916;54.346;18.562;2024-03-29T11:46:14;2.40;;;0.90;;
57023;SDS011;42916;54.346;18.562;2024-03-29T11:48:42;5.40;;;1.00;;
57023;SDS011;42916;54.346;18.562;2024-03-29T11:51:11;2.60;;;0.90;;
57023;SDS011;42916;54.346;18.562;2024-03-29T11:53:41;3.00;;;1.00;;
57023;SDS011;42916;54.346;18.562;2024-03-29T11:56:08;2.90;;;0.90;;
57023;SDS011;42916;54.346;18.562;2024-03-29T11:58:37;3.90;;;1.20;;
57023;SDS011;42916;54.346;18.562;2024-03-29T12:01:05;4.50;;;1.20;;
57023;SDS011;42916;54.346;18.562;2024-03-29T12:03:32;2.60;;;1.00;;
57023;SDS011;42916;54.346;18.562;2024-03-29T12:05:59;3.70;;;1.00;;
57023;SDS011;42916;54.346;18.562;2024-03-29T12:08:29;3.40;;;0.90;;
57023;SDS011;42916;54.346;18.562;2024-03-29T12:11:00;1.80;;;0.80;;
57023;SDS011;42916;54.346;18.562;2024-03-29T12:13:37;2.60;;;0.90;;
57023;SDS011;42916;54.346;18.562;2024-03-29T12:18:34;4.50;;;1.20;;
57023;SDS011;42916;54.346;18.562;2024-03-29T12:21:02;2.60;;;0.90;;
57023;SDS011;42916;54.346;18.562;2024-03-29T12:23:29;3.90;;;1.10;;
57023;SDS011;42916;54.346;18.562;2024-03-29T12:25:57;3.90;;;1.10;;
57023;SDS011;42916;54.346;18.562;2024-03-29T12:28:25;6.60;;;1.30;;
57023;SDS011;42916;54.346;18.562;2024-03-29T12:30:52;5.10;;;1.10;;
57023;SDS011;42916;54.346;18.562;2024-03-29T12:33:23;3.80;;;1.00;;
57023;SDS011;42916;54.346;18.562;2024-03-29T12:35:50;3.00;;;1.10;;
57023;SDS011;42916;54.346;18.562;2024-03-29T12:38:22;1.90;;;1.00;;
57023;SDS011;42916;54.346;18.562;2024-03-29T12:40:49;4.00;;;1.20;;
57023;SDS011;42916;54.346;18.562;2024-03-29T12:43:20;2.60;;;1.00;;
57023;SDS011;42916;54.346;18.562;2024-03-29T12:45:48;2.70;;;1.00;;
57023;SDS011;42916;54.346;18.562;2024-03-29T12:48:17;3.70;;;1.30;;
57023;SDS011;42916;54.346;18.562;2024-03-29T12:50:47;5.20;;;1.10;;
57023;SDS011;42916;54.346;18.562;2024-03-29T12:53:14;2.60;;;0.90;;
57023;SDS011;42916;54.346;18.562;2024-03-29T12:55:43;1.50;;;0.80;;
57023;SDS011;42916;54.346;18.562;2024-03-29T12:58:12;4.50;;;1.00;;
57023;SDS011;42916;54.346;18.562;2024-03-29T13:00:40;2.40;;;0.90;;
57023;SDS011;42916;54.346;18.562;2024-03-29T13:03:07;2.00;;;0.80;;
57023;SDS011;42916;54.346;18.562;2024-03-29T13:05:35;5.60;;;1.00;;
57023;SDS011;42916;54.346;18.562;2024-03-29T13:08:10;7.60;;;1.20;;
57023;SDS011;42916;54.346;18.562;2024-03-29T13:10:38;3.40;;;0.90;;
57023;SDS011;42916;54.346;18.562;2024-03-29T13:13:06;3.00;;;0.90;;
57023;SDS011;42916;54.346;18.562;2024-03-29T13:15:34;5.30;;;1.40;;
57023;SDS011;42916;54.346;18.562;2024-03-29T13:18:02;3.10;;;0.80;;
57023;SDS011;42916;54.346;18.562;2024-03-29T13:20:30;2.20;;;0.70;;
57023;SDS011;42916;54.346;18.562;2024-03-29T13:22:58;1.70;;;0.70;;
57023;SDS011;42916;54.346;18.562;2024-03-29T13:25:25;3.50;;;0.80;;
57023;SDS011;42916;54.346;18.562;2024-03-29T13:27:52;4.80;;;0.90;;
57023;SDS011;42916;54.346;18.562;2024-03-29T13:30:25;1.40;;;0.80;;
57023;SDS011;42916;54.346;18.562;2024-03-29T13:32:53;1.60;;;0.70;;
57023;SDS011;42916;54.346;18.562;2024-03-29T13:35:20;2.80;;;0.80;;
57023;SDS011;42916;54.346;18.562;2024-03-29T13:37:51;2.20;;;0.80;;
57023;SDS011;42916;54.346;18.562;2024-03-29T13:40:22;3.20;;;0.90;;
57023;SDS011;42916;54.346;18.562;2024-03-29T13:42:50;3.70;;;0.80;;
57023;SDS011;42916;54.346;18.562;2024-03-29T13:45:17;5.40;;;1.10;;
57023;SDS011;42916;54.346;18.562;2024-03-29T13:47:45;2.70;;;0.90;;
57023;SDS011;42916;54.346;18.562;2024-03-29T13:50:14;5.00;;;0.80;;
57023;SDS011;42916;54.346;18.562;2024-03-29T13:52:42;3.10;;;0.80;;
57023;SDS011;42916;54.346;18.562;2024-03-29T13:55:09;4.20;;;1.00;;
57023;SDS011;42916;54.346;18.562;2024-03-29T13:57:36;2.90;;;0.90;;
57023;SDS011;42916;54.346;18.562;2024-03-29T14:00:04;5.10;;;0.90;;
57023;SDS011;42916;54.346;18.562;2024-03-29T14:02:34;2.50;;;0.80;;
57023;SDS011;42916;54.346;18.562;2024-03-29T14:05:01;2.80;;;0.70;;
57023;SDS011;42916;54.346;18.562;2024-03-29T14:07:28;3.70;;;0.80;;
57023;SDS011;42916;54.346;18.562;2024-03-29T14:09:55;6.70;;;1.00;;
57023;SDS011;42916;54.346;18.562;2024-03-29T14:12:21;4.90;;;0.70;;
57023;SDS011;42916;54.346;18.562;2024-03-29T14:14:53;2.90;;;1.20;;
57023;SDS011;42916;54.346;18.562;2024-03-29T14:17:20;6.60;;;1.20;;
57023;SDS011;42916;54.346;18.562;2024-03-29T14:19:47;3.30;;;0.80;;
57023;SDS011;42916;54.346;18.562;2024-03-29T14:22:16;2.20;;;0.80;;
57023;SDS011;42916;54.346;18.562;2024-03-29T14:24:45;1.70;;;1.10;;
57023;SDS011;42916;54.346;18.562;2024-03-29T14:27:12;4.00;;;1.00;;
57023;SDS011;42916;54.346;18.562;2024-03-29T14:29:39;5.90;;;1.10;;
57023;SDS011;42916;54.346;18.562;2024-03-29T14:32:06;3.10;;;0.90;;
57023;SDS011;42916;54.346;18.562;2024-03-29T14:34:33;3.30;;;0.80;;
57023;SDS011;42916;54.346;18.562;2024-03-29T14:37:04;3.40;;;0.90;;
57023;SDS011;42916;54.346;18.562;2024-03-29T14:39:31;4.30;;;1.00;;
57023;SDS011;42916;54.346;18.562;2024-03-29T14:41:57;14.00;;;1.40;;
57023;SDS011;42916;54.346;18.562;2024-03-29T14:44:29;4.50;;;1.00;;
57023;SDS011;42916;54.346;18.562;2024-03-29T14:46:55;4.70;;;1.10;;
57023;SDS011;42916;54.346;18.562;2024-03-29T14:49:22;3.60;;;0.80;;
57023;SDS011;42916;54.346;18.562;2024-03-29T14:51:49;2.70;;;0.80;;
57023;SDS011;42916;54.346;18.562;2024-03-29T14:54:16;4.20;;;1.20;;
57023;SDS011;42916;54.346;18.562;2024-03-29T14:56:42;4.70;;;1.20;;
57023;SDS011;42916;54.346;18.562;2024-03-29T14:59:09;3.70;;;1.00;;
57023;SDS011;42916;54.346;18.562;2024-03-29T15:01:36;4.10;;;1.30;;
57023;SDS011;42916;54.346;18.562;2024-03-29T15:04:03;2.80;;;0.90;;
57023;SDS011;42916;54.346;18.562;2024-03-29T15:06:30;3.50;;;1.10;;
57023;SDS011;42916;54.346;18.562;2024-03-29T15:08:57;2.80;;;1.40;;
57023;SDS011;42916;54.346;18.562;2024-03-29T15:11:27;7.50;;;1.30;;
57023;SDS011;42916;54.346;18.562;2024-03-29T15:13:53;5.10;;;1.10;;
57023;SDS011;42916;54.346;18.562;2024-03-29T15:16:20;10.30;;;1.20;;
57023;SDS011;42916;54.346;18.562;2024-03-29T15:18:47;2.90;;;1.10;;
57023;SDS011;42916;54.346;18.562;2024-03-29T15:21:14;3.50;;;1.20;;
57023;SDS011;42916;54.346;18.562;2024-03-29T15:23:44;7.70;;;1.10;;
57023;SDS011;42916;54.346;18.562;2024-03-29T15:26:10;4.40;;;1.00;;
57023;SDS011;42916;54.346;18.562;2024-03-29T15:28:37;5.10;;;1.10;;
57023;SDS011;42916;54.346;18.562;2024-03-29T15:31:22;62.10;;;4.50;;
57023;SDS011;42916;54.346;18.562;2024-03-29T15:33:49;9.70;;;1.60;;
57023;SDS011;42916;54.346;18.562;2024-03-29T15:36:17;82.30;;;4.70;;
57023;SDS011;42916;54.346;18.562;2024-03-29T15:38:44;8.10;;;1.30;;
57023;SDS011;42916;54.346;18.562;2024-03-29T15:41:12;6.90;;;1.30;;
57023;SDS011;42916;54.346;18.562;2024-03-29T15:43:38;22.80;;;2.10;;
57023;SDS011;42916;54.346;18.562;2024-03-29T15:46:07;6.10;;;1.40;;
57023;SDS011;42916;54.346;18.562;2024-03-29T15:48:38;2.60;;;1.30;;
57023;SDS011;42916;54.346;18.562;2024-03-29T15:51:07;3.50;;;1.20;;
57023;SDS011;42916;54.346;18.562;2024-03-29T15:53:39;5.20;;;1.50;;
57023;SDS011;42916;54.346;18.562;2024-03-29T15:56:06;3.50;;;1.40;;
57023;SDS011;42916;54.346;18.562;2024-03-29T15:58:42;4.90;;;1.40;;
57023;SDS011;42916;54.346;18.562;2024-03-29T16:01:09;4.30;;;1.90;;
57023;SDS011;42916;54.346;18.562;2024-03-29T16:03:36;3.60;;;1.60;;
57023;SDS011;42916;54.346;18.562;2024-03-29T16:06:03;4.70;;;2.30;;
57023;SDS011;42916;54.346;18.562;2024-03-29T16:08:30;5.80;;;1.80;;
57023;SDS011;42916;54.346;18.562;2024-03-29T16:11:00;6.70;;;1.70;;
57023;SDS011;42916;54.346;18.562;2024-03-29T16:13:30;4.80;;;1.80;;
57023;SDS011;42916;54.346;18.562;2024-03-29T16:15:58;4.30;;;1.50;;
57023;SDS011;42916;54.346;18.562;2024-03-29T16:18:27;5.70;;;2.10;;
57023;SDS011;42916;54.346;18.562;2024-03-29T16:20:54;5.50;;;1.70;;
57023;SDS011;42916;54.346;18.562;2024-03-29T16:23:22;7.20;;;2.10;;
57023;SDS011;42916;54.346;18.562;2024-03-29T16:25:50;8.00;;;1.80;;
57023;SDS011;42916;54.346;18.562;2024-03-29T16:28:22;5.80;;;1.90;;
57023;SDS011;42916;54.346;18.562;2024-03-29T16:30:49;3.80;;;1.70;;
57023;SDS011;42916;54.346;18.562;2024-03-29T16:33:20;3.90;;;1.50;;
57023;SDS011;42916;54.346;18.562;2024-03-29T16:35:46;3.70;;;1.50;;
57023;SDS011;42916;54.346;18.562;2024-03-29T16:38:13;8.70;;;2.20;;
57023;SDS011;42916;54.346;18.562;2024-03-29T16:40:40;5.70;;;2.00;;
57023;SDS011;42916;54.346;18.562;2024-03-29T16:43:07;7.00;;;2.10;;
57023;SDS011;42916;54.346;18.562;2024-03-29T16:45:36;7.00;;;2.00;;
57023;SDS011;42916;54.346;18.562;2024-03-29T16:50:30;5.40;;;1.70;;
57023;SDS011;42916;54.346;18.562;2024-03-29T16:52:57;5.50;;;1.70;;
57023;SDS011;42916;54.346;18.562;2024-03-29T16:55:23;6.40;;;1.50;;
57023;SDS011;42916;54.346;18.562;2024-03-29T16:57:51;8.20;;;1.80;;
57023;SDS011;42916;54.346;18.562;2024-03-29T17:00:18;5.50;;;1.70;;
57023;SDS011;42916;54.346;18.562;2024-03-29T17:02:45;5.20;;;1.80;;
57023;SDS011;42916;54.346;18.562;2024-03-29T17:05:14;4.00;;;1.70;;
57023;SDS011;42916;54.346;18.562;2024-03-29T17:07:40;8.60;;;2.50;;
57023;SDS011;42916;54.346;18.562;2024-03-29T17:10:10;3.70;;;1.60;;
57023;SDS011;42916;54.346;18.562;2024-03-29T17:12:37;6.90;;;2.10;;
57023;SDS011;42916;54.346;18.562;2024-03-29T17:15:15;6.60;;;2.10;;
57023;SDS011;42916;54.346;18.562;2024-03-29T17:17:48;6.30;;;2.40;;
57023;SDS011;42916;54.346;18.562;2024-03-29T17:20:22;6.00;;;2.20;;
57023;SDS011;42916;54.346;18.562;2024-03-29T17:22:49;6.70;;;2.00;;
57023;SDS011;42916;54.346;18.562;2024-03-29T17:25:16;9.20;;;2.60;;
57023;SDS011;42916;54.346;18.562;2024-03-29T17:27:42;9.60;;;2.40;;
57023;SDS011;42916;54.346;18.562;2024-03-29T17:30:09;7.70;;;2.70;;
57023;SDS011;42916;54.346;18.562;2024-03-29T17:32:36;9.10;;;2.80;;
57023;SDS011;42916;54.346;18.562;2024-03-29T17:35:03;6.50;;;2.90;;
57023;SDS011;42916;54.346;18.562;2024-03-29T17:37:30;10.40;;;3.30;;
57023;SDS011;42916;54.346;18.562;2024-03-29T17:39:57;10.30;;;3.20;;
57023;SDS011;42916;54.346;18.562;2024-03-29T17:42:24;8.40;;;2.90;;
57023;SDS011;42916;54.346;18.562;2024-03-29T17:44:50;8.50;;;3.40;;
57023;SDS011;42916;54.346;18.562;2024-03-29T17:47:17;11.60;;;3.10;;
57023;SDS011;42916;54.346;18.562;2024-03-29T17:49:45;10.80;;;3.60;;
57023;SDS011;42916;54.346;18.562;2024-03-29T17:52:12;9.00;;;3.60;;
57023;SDS011;42916;54.346;18.562;2024-03-29T17:54:38;14.50;;;3.60;;
57023;SDS011;42916;54.346;18.562;2024-03-29T17:57:05;10.40;;;3.80;;
57023;SDS011;42916;54.346;18.562;2024-03-29T17:59:32;11.80;;;3.30;;
57023;SDS011;42916;54.346;18.562;2024-03-29T18:01:58;9.00;;;3.40;;
57023;SDS011;42916;54.346;18.562;2024-03-29T18:04:25;12.00;;;3.90;;
57023;SDS011;42916;54.346;18.562;2024-03-29T18:06:52;9.10;;;3.90;;
57023;SDS011;42916;54.346;18.562;2024-03-29T18:09:18;7.90;;;3.40;;
57023;SDS011;42916;54.346;18.562;2024-03-29T18:11:45;5.50;;;2.90;;
57023;SDS011;42916;54.346;18.562;2024-03-29T18:14:12;8.10;;;3.30;;
57023;SDS011;42916;54.346;18.562;2024-03-29T18:16:38;8.00;;;3.00;;